Terminal Aerodrome Forecast
Issued by NWS North Platte, NE

Home | Current Version | Previous Version | Graphics & Text | Print | Product List | Glossary On
Versions: 1 2 3 4 5 6 7 8 9 10 11 12 13 14 15 16 17 18 19 20
000
FTUS43 KLBF 191100 CCA
TAFVTN
TAF COR
KVTN 191138Z 1912/2012 07007KT P6SM BKN006 OVC080
      TEMPO 1912/1914 SCT006 OVC080
     FM191400 09009KT P6SM SCT006 OVC080
     FM191700 09011KT 5SM -RA BKN015 OVC040
     FM200100 VRB06KT 5SM -RA BR OVC012=

USA.gov is the U.S. government's official web portal to all federal, state and local government web resources and services.